KCEC/CEC METAR and TAF weather

Enter ICAO airport designator
Station Type Date Time Source
KCEC METAR 2020/01/21 20:56 UTC NOAA

KCEC 212056Z AUTO 17013KT 10SM FEW024 BKN032 OVC041 09/07 A3001 RMK AO2 SLP164 60000 T00940072 50008


Station Type Date Time Source
KCEC Decoded METAR 2020/01/21 20:56 UTC NOAA

CRESCENT CITY MC NAMARA, CA, United States (KCEC) 41-47N 124-14W
Jan 21, 2020 - 03:56 PM EST / 2020.01.21 2056 UTC
Wind: from the S (170 degrees) at 15 MPH (13 KT):0
Visibility: 10 mile(s):0
Sky conditions: overcast
Temperature: 48.9 F (9.4 C)
Dew Point: 45.0 F (7.2 C)
Relative Humidity: 86%
Pressure (altimeter): 30.01 in. Hg (1016 hPa)
Pressure tendency: 0.02 inches (0.8 hPa) higher than three hours ago
ob: KCEC 212056Z AUTO 17013KT 10SM FEW024 BKN032 OVC041 09/07 A3001 RMK AO2 SLP164 60000 T00940072 50008
cycle: 21

Station Type Date Time Source
KCEC TAF 2020/01/21 18:30 UTC NOAA

TAF KCEC 211727Z 2118/2218 15013KT 6SM -RA BR FEW026 SCT035 OVC045
TEMPO 2118/2121 BKN025
FM212100 18012KT P6SM -SHRA SCT025 BKN040
FM220300 16007KT P6SM SCT025 BKN050
FM221100 18012KT P6SM BKN035
FM221700 15018KT 5SM -RA BR OVC030

Example: see airport list